createdAt,value
2019-04-14T00:01:06.410Z,1018.7
2019-04-14T00:02:18.509Z,1018.64
2019-04-14T00:03:30.374Z,1018.67
2019-04-14T00:04:42.211Z,1018.64
2019-04-14T00:05:53.902Z,1018.68
2019-04-14T00:07:05.821Z,1018.66
2019-04-14T00:08:17.712Z,1018.65
2019-04-14T00:09:29.388Z,1018.67
2019-04-14T00:10:40.624Z,1018.66
2019-04-14T00:11:52.672Z,1018.68
2019-04-14T00:13:08.917Z,1018.67
2019-04-14T00:14:20.760Z,1018.64
2019-04-14T00:15:37.729Z,1018.67
2019-04-14T00:16:59.623Z,1018.69
2019-04-14T00:18:09.778Z,1018.64
2019-04-14T00:19:19.609Z,1018.67
2019-04-14T00:20:29.371Z,1018.64
2019-04-14T00:21:39.343Z,1018.67
2019-04-14T00:22:51.204Z,1018.65
2019-04-14T00:24:03.057Z,1018.62
2019-04-14T00:25:13.105Z,1018.68
2019-04-14T00:26:24.763Z,1018.68
2019-04-14T00:27:36.697Z,1018.59
2019-04-14T00:28:46.936Z,1018.61
2019-04-14T00:29:58.958Z,1018.65
2019-04-14T00:31:08.750Z,1018.59
2019-04-14T00:32:18.494Z,1018.58
2019-04-14T00:33:30.159Z,1018.59
2019-04-14T00:34:39.939Z,1018.59
2019-04-14T00:35:49.678Z,1018.6
2019-04-14T00:37:01.263Z,1018.61
2019-04-14T00:38:13.028Z,1018.54
2019-04-14T00:39:25.025Z,1018.57
2019-04-14T00:40:34.790Z,1018.55
2019-04-14T00:41:50.776Z,1018.59
2019-04-14T00:43:11.345Z,1018.54
2019-04-14T00:44:21.139Z,1018.6
2019-04-14T00:45:40.165Z,1018.57
2019-04-14T00:47:07.102Z,1018.59
2019-04-14T00:48:20.616Z,1018.59
2019-04-14T00:49:33.258Z,1018.59
2019-04-14T00:50:45.230Z,1018.58
2019-04-14T00:51:57.074Z,1018.59
2019-04-14T00:53:09.583Z,1018.52
2019-04-14T00:54:21.750Z,1018.53
2019-04-14T00:55:33.530Z,1018.53
2019-04-14T00:56:43.395Z,1018.53
2019-04-14T00:57:55.109Z,1018.44
2019-04-14T00:59:05.036Z,1018.51
2019-04-14T01:00:18.534Z,1018.5
2019-04-14T01:01:30.803Z,1018.53
2019-04-14T01:02:42.912Z,1018.54
2019-04-14T01:03:52.697Z,1018.55
2019-04-14T01:05:04.433Z,1018.55
2019-04-14T01:06:14.304Z,1018.54
2019-04-14T01:07:26.182Z,1018.51
2019-04-14T01:08:38.064Z,1018.5
2019-04-14T01:09:49.406Z,1018.48
2019-04-14T01:11:00.986Z,1018.55
2019-04-14T01:12:12.789Z,1018.57
2019-04-14T01:13:24.606Z,1018.55
2019-04-14T01:14:34.302Z,1018.59
2019-04-14T01:15:50.941Z,1018.58
2019-04-14T01:17:26.942Z,1018.61
2019-04-14T01:18:38.633Z,1018.58
2019-04-14T01:19:50.607Z,1018.56
2019-04-14T01:21:00.390Z,1018.61
2019-04-14T01:22:11.930Z,1018.65
2019-04-14T01:23:23.966Z,1018.61
2019-04-14T01:24:35.952Z,1018.55
2019-04-14T01:25:47.685Z,1018.58
2019-04-14T01:26:57.499Z,1018.63
2019-04-14T01:28:08.955Z,1018.53
2019-04-14T01:29:18.983Z,1018.55
2019-04-14T01:30:28.604Z,1018.55
2019-04-14T01:31:40.253Z,1018.57
2019-04-14T01:32:50.186Z,1018.57
2019-04-14T01:34:01.943Z,1018.56
2019-04-14T01:35:11.949Z,1018.61
2019-04-14T01:36:23.520Z,1018.58
2019-04-14T01:37:33.384Z,1018.6
2019-04-14T01:38:44.979Z,1018.63
2019-04-14T01:39:56.669Z,1018.56
2019-04-14T01:41:08.522Z,1018.56
2019-04-14T01:42:20.302Z,1018.61
2019-04-14T01:43:32.097Z,1018.65
2019-04-14T01:44:43.812Z,1018.61
2019-04-14T01:46:05.029Z,1018.62
2019-04-14T01:47:37.709Z,1018.67
2019-04-14T01:48:47.701Z,1018.65
2019-04-14T01:49:57.428Z,1018.64
2019-04-14T01:51:07.387Z,1018.64
2019-04-14T01:52:16.845Z,1018.64
2019-04-14T01:53:29.240Z,1018.6
2019-04-14T01:54:40.949Z,1018.6
2019-04-14T01:55:52.667Z,1018.57
2019-04-14T01:57:02.519Z,1018.63
2019-04-14T01:58:14.372Z,1018.66
2019-04-14T01:59:26.254Z,1018.67
2019-04-14T02:00:38.111Z,1018.58
2019-04-14T02:01:49.975Z,1018.63
2019-04-14T02:02:59.792Z,1018.6
2019-04-14T02:04:11.635Z,1018.57
2019-04-14T02:05:21.474Z,1018.65
2019-04-14T02:06:33.336Z,1018.55
2019-04-14T02:07:45.124Z,1018.57
2019-04-14T02:08:56.906Z,1018.6
2019-04-14T02:10:08.580Z,1018.59
2019-04-14T02:11:18.421Z,1018.56
2019-04-14T02:12:30.173Z,1018.56
2019-04-14T02:13:42.076Z,1018.61
2019-04-14T02:14:54.057Z,1018.6
2019-04-14T02:16:14.747Z,1018.6
2019-04-14T02:17:58.882Z,1018.61
2019-04-14T02:19:10.934Z,1018.58
2019-04-14T02:20:20.934Z,1018.63
2019-04-14T02:21:32.464Z,1018.63
2019-04-14T02:22:42.182Z,1018.62
2019-04-14T02:23:51.906Z,1018.59
2019-04-14T02:25:03.563Z,1018.63
2019-04-14T02:26:15.470Z,1018.59
2019-04-14T02:27:27.483Z,1018.57
2019-04-14T02:28:38.174Z,1018.57
2019-04-14T02:29:51.620Z,1018.57
2019-04-14T02:31:16.772Z,1018.52
2019-04-14T02:35:10.636Z,1018.56
2019-04-14T02:39:20.155Z,1018.5
2019-04-14T02:51:39.729Z,1018.65
2019-04-14T02:55:42.048Z,1018.64
2019-04-14T02:59:42.662Z,1018.59
2019-04-14T03:03:37.046Z,1018.63
2019-04-14T03:07:45.511Z,1018.64
2019-04-14T03:11:37.617Z,1018.66
2019-04-14T03:15:54.953Z,1018.61
2019-04-14T03:20:04.647Z,1018.66
2019-04-14T03:24:31.185Z,1018.67
2019-04-14T03:27:39.614Z,1018.68
2019-04-14T03:40:25.371Z,1018.6
2019-04-14T03:44:34.501Z,1018.64
2019-04-14T03:48:42.193Z,1018.68
2019-04-14T03:52:31.112Z,1018.7
2019-04-14T03:55:52.074Z,1018.58
2019-04-14T03:57:21.491Z,1018.6
2019-04-14T03:58:37.954Z,1018.63
2019-04-14T03:59:47.810Z,1018.59
2019-04-14T04:00:57.656Z,1018.58
2019-04-14T04:02:09.661Z,1018.58
2019-04-14T04:03:21.791Z,1018.6
2019-04-14T04:04:33.745Z,1018.61
2019-04-14T04:05:43.539Z,1018.57
2019-04-14T04:06:53.261Z,1018.59
2019-04-14T04:08:04.974Z,1018.61
2019-04-14T04:09:17.093Z,1018.6
2019-04-14T04:10:29.217Z,1018.61
2019-04-14T04:11:39.074Z,1018.6
2019-04-14T04:12:51.107Z,1018.6
2019-04-14T04:14:03.124Z,1018.57
2019-04-14T04:15:14.940Z,1018.61
2019-04-14T04:16:24.685Z,1018.6
2019-04-14T04:17:36.270Z,1018.62
2019-04-14T04:18:56.081Z,1018.59
2019-04-14T04:20:23.920Z,1018.66
2019-04-14T04:21:35.604Z,1018.66
2019-04-14T04:22:45.658Z,1018.62
2019-04-14T04:23:55.600Z,1018.65
2019-04-14T04:25:07.298Z,1018.62
2019-04-14T04:26:16.978Z,1018.65
2019-04-14T04:27:26.670Z,1018.66
2019-04-14T04:28:36.621Z,1018.61
2019-04-14T04:29:48.404Z,1018.64
2019-04-14T04:31:00.194Z,1018.64
2019-04-14T04:32:12.190Z,1018.67
2019-04-14T04:33:24.191Z,1018.63
2019-04-14T04:34:35.842Z,1018.7
2019-04-14T04:35:45.771Z,1018.68
2019-04-14T04:36:55.499Z,1018.66
2019-04-14T04:38:07.308Z,1018.7
2019-04-14T04:39:19.258Z,1018.67
2019-04-14T04:40:29.070Z,1018.66
2019-04-14T04:41:40.703Z,1018.67
2019-04-14T04:42:52.634Z,1018.65
2019-04-14T04:44:02.873Z,1018.69
2019-04-14T04:45:12.731Z,1018.73
2019-04-14T04:46:24.362Z,1018.77
2019-04-14T04:47:36.230Z,1018.73
2019-04-14T04:48:57.799Z,1018.76
2019-04-14T04:50:32.375Z,1018.74
2019-04-14T04:51:44.299Z,1018.79
2019-04-14T04:52:56.168Z,1018.77
2019-04-14T04:54:08.142Z,1018.78
2019-04-14T04:55:19.811Z,1018.8
2019-04-14T04:56:29.777Z,1018.8
2019-04-14T04:57:39.585Z,1018.83
2019-04-14T04:58:50.164Z,1018.82
2019-04-14T05:00:00.575Z,1018.79
2019-04-14T05:01:10.376Z,1018.77
2019-04-14T05:02:22.066Z,1018.8
2019-04-14T05:03:31.879Z,1018.82
2019-04-14T05:04:41.675Z,1018.83
2019-04-14T05:05:51.628Z,1018.78
2019-04-14T05:07:03.611Z,1018.83
2019-04-14T05:08:15.194Z,1018.85
2019-04-14T05:09:25.300Z,1018.84
2019-04-14T05:10:34.977Z,1018.91
2019-04-14T05:11:46.926Z,1018.92
2019-04-14T05:13:03.177Z,1018.92
2019-04-14T05:14:13.107Z,1018.95
2019-04-14T05:15:23.059Z,1018.92
2019-04-14T05:16:34.598Z,1018.96
2019-04-14T05:17:45.238Z,1018.95
2019-04-14T05:19:05.155Z,1018.94
2019-04-14T05:20:44.107Z,1018.9
2019-04-14T05:21:55.985Z,1018.95
2019-04-14T05:23:06.055Z,1018.93
2019-04-14T05:24:15.808Z,1018.95
2019-04-14T05:25:25.588Z,1018.93
2019-04-14T05:26:35.533Z,1018.95
2019-04-14T05:27:47.348Z,1018.93
2019-04-14T05:28:59.109Z,1018.96
2019-04-14T05:30:11.152Z,1018.99
2019-04-14T05:31:22.854Z,1018.97
2019-04-14T05:32:37.326Z,1019.02
2019-04-14T05:33:48.998Z,1019.05
2019-04-14T05:34:58.779Z,1019.02
2019-04-14T05:36:10.652Z,1018.98
2019-04-14T05:37:22.489Z,1019.03
2019-04-14T05:38:34.430Z,1019.02
2019-04-14T05:39:46.221Z,1019.07
2019-04-14T05:40:58.342Z,1019.08
2019-04-14T05:42:14.738Z,1019.05
2019-04-14T05:43:43.241Z,1019.09
2019-04-14T05:45:08.853Z,1019.1
2019-04-14T05:46:20.682Z,1019.09
2019-04-14T05:47:30.718Z,1019.1
2019-04-14T05:48:42.496Z,1019.07
2019-04-14T05:49:56.144Z,1019.04
2019-04-14T05:51:08.488Z,1019.07
2019-04-14T05:52:23.401Z,1019.07
2019-04-14T05:53:35.087Z,1019.1
2019-04-14T05:54:47.096Z,1019.09
2019-04-14T05:55:59.253Z,1019.14
2019-04-14T05:57:11.210Z,1019.18
2019-04-14T05:58:23.202Z,1019.18
2019-04-14T05:59:32.988Z,1019.19
2019-04-14T06:00:43.715Z,1019.15
2019-04-14T06:01:59.401Z,1019.18
2019-04-14T06:03:10.337Z,1019.2
2019-04-14T06:04:20.115Z,1019.2
2019-04-14T06:05:31.767Z,1019.22
2019-04-14T06:06:43.339Z,1019.19
2019-04-14T06:07:55.412Z,1019.18
2019-04-14T06:09:05.091Z,1019.18
2019-04-14T06:10:14.769Z,1019.2
2019-04-14T06:11:24.477Z,1019.24
2019-04-14T06:12:34.177Z,1019.23
2019-04-14T06:13:43.880Z,1019.2
2019-04-14T06:14:53.826Z,1019.24
2019-04-14T06:16:03.534Z,1019.21
2019-04-14T06:17:13.256Z,1019.24
2019-04-14T06:18:23.217Z,1019.22
2019-04-14T06:19:37.871Z,1019.21
2019-04-14T06:20:49.137Z,1019.2
2019-04-14T06:21:58.336Z,1019.22
2019-04-14T06:23:08.036Z,1019.17
2019-04-14T06:24:17.987Z,1019.2
2019-04-14T06:25:27.931Z,1019.18
2019-04-14T06:26:39.111Z,1019.21
2019-04-14T06:27:49.094Z,1019.18
2019-04-14T06:28:58.531Z,1019.22
2019-04-14T06:30:08.703Z,1019.23
2019-04-14T06:31:18.650Z,1019.24
2019-04-14T06:32:28.586Z,1019.25
2019-04-14T06:33:38.536Z,1019.19
2019-04-14T06:34:48.255Z,1019.25
2019-04-14T06:35:58.203Z,1019.27
2019-04-14T06:37:07.900Z,1019.24
2019-04-14T06:38:17.585Z,1019.28
2019-04-14T06:39:27.276Z,1019.3
2019-04-14T06:40:37.275Z,1019.25
2019-04-14T06:41:47.225Z,1019.25
2019-04-14T06:42:57.178Z,1019.28
2019-04-14T06:44:07.118Z,1019.24
2019-04-14T06:45:16.804Z,1019.26
2019-04-14T06:46:26.496Z,1019.24
2019-04-14T06:47:37.046Z,1019.26
2019-04-14T06:48:46.715Z,1019.27
2019-04-14T06:49:56.418Z,1019.27
2019-04-14T06:51:06.372Z,1019.3
2019-04-14T06:52:16.338Z,1019.33
2019-04-14T06:53:26.289Z,1019.33
2019-04-14T06:54:35.995Z,1019.34
2019-04-14T06:55:45.697Z,1019.36
2019-04-14T06:56:57.904Z,1019.37
2019-04-14T06:58:07.855Z,1019.31
2019-04-14T06:59:17.832Z,1019.34
2019-04-14T07:00:27.805Z,1019.35
2019-04-14T07:01:38.989Z,1019.33
2019-04-14T07:02:49.074Z,1019.31
2019-04-14T07:03:58.776Z,1019.38
2019-04-14T07:05:08.942Z,1019.4
2019-04-14T07:06:18.882Z,1019.38
2019-04-14T07:07:28.840Z,1019.42
2019-04-14T07:08:38.778Z,1019.4
2019-04-14T07:09:48.726Z,1019.44
2019-04-14T07:10:58.716Z,1019.39
2019-04-14T07:12:08.974Z,1019.47
2019-04-14T07:13:19.876Z,1019.48
2019-04-14T07:14:31.934Z,1019.48
2019-04-14T07:15:42.032Z,1019.5
2019-04-14T07:16:51.938Z,1019.46
2019-04-14T07:18:01.947Z,1019.49
2019-04-14T07:19:14.889Z,1019.48
2019-04-14T07:20:24.584Z,1019.48
2019-04-14T07:21:34.561Z,1019.5
2019-04-14T07:22:44.447Z,1019.45
2019-04-14T07:23:54.380Z,1019.48
2019-04-14T07:25:04.330Z,1019.5
2019-04-14T07:26:13.800Z,1019.52
2019-04-14T07:27:23.506Z,1019.52
2019-04-14T07:28:33.204Z,1019.52
2019-04-14T07:29:42.886Z,1019.49
2019-04-14T07:30:52.594Z,1019.5
2019-04-14T07:32:02.294Z,1019.56
2019-04-14T07:33:11.987Z,1019.55
2019-04-14T07:34:21.439Z,1019.54
2019-04-14T07:35:31.451Z,1019.51
2019-04-14T07:36:40.897Z,1019.51
2019-04-14T07:37:50.845Z,1019.5
2019-04-14T07:39:00.812Z,1019.48
2019-04-14T07:40:10.004Z,1019.49
2019-04-14T07:41:19.956Z,1019.48
2019-04-14T07:42:29.650Z,1019.5
2019-04-14T07:43:39.125Z,1019.5
2019-04-14T07:44:49.290Z,1019.49
2019-04-14T07:45:58.994Z,1019.55
2019-04-14T07:47:08.955Z,1019.5
2019-04-14T07:48:18.650Z,1019.52
2019-04-14T07:49:28.350Z,1019.52
2019-04-14T07:50:40.502Z,1019.52
2019-04-14T07:51:50.002Z,1019.54
2019-04-14T07:52:59.946Z,1019.48
2019-04-14T07:54:09.907Z,1019.53
2019-04-14T07:55:19.867Z,1019.51
2019-04-14T07:56:29.806Z,1019.49
2019-04-14T07:57:39.499Z,1019.54
2019-04-14T07:58:49.434Z,1019.51
2019-04-14T07:59:59.398Z,1019.54
2019-04-14T08:01:09.379Z,1019.59
2019-04-14T08:02:19.075Z,1019.59
2019-04-14T08:03:29.507Z,1019.61
2019-04-14T08:04:39.455Z,1019.62
2019-04-14T08:05:49.407Z,1019.64
2019-04-14T08:06:59.105Z,1019.61
2019-04-14T08:08:09.166Z,1019.6
2019-04-14T08:09:19.128Z,1019.62
2019-04-14T08:10:29.077Z,1019.62
2019-04-14T08:11:38.818Z,1019.63
2019-04-14T08:12:48.528Z,1019.65
2019-04-14T08:13:58.233Z,1019.62
2019-04-14T08:15:08.181Z,1019.64
2019-04-14T08:16:18.140Z,1019.66
2019-04-14T08:17:27.848Z,1019.66
2019-04-14T08:18:37.556Z,1019.67
2019-04-14T08:19:47.502Z,1019.66
2019-04-14T08:20:57.450Z,1019.61
2019-04-14T08:22:07.410Z,1019.68
2019-04-14T08:23:16.855Z,1019.69
2019-04-14T08:24:26.818Z,1019.69
2019-04-14T08:25:36.530Z,1019.66
2019-04-14T08:26:46.489Z,1019.68
2019-04-14T08:27:56.182Z,1019.7
2019-04-14T08:29:05.886Z,1019.72
2019-04-14T08:30:16.040Z,1019.67
2019-04-14T08:31:25.724Z,1019.68
2019-04-14T08:32:35.697Z,1019.69
2019-04-14T08:33:45.409Z,1019.71
2019-04-14T08:34:55.592Z,1019.7
2019-04-14T08:36:05.280Z,1019.76
2019-04-14T08:37:15.217Z,1019.72
2019-04-14T08:38:25.204Z,1019.68
2019-04-14T08:39:34.956Z,1019.7
2019-04-14T08:40:44.648Z,1019.71
2019-04-14T08:41:54.631Z,1019.7
2019-04-14T08:43:04.574Z,1019.69
2019-04-14T08:44:14.006Z,1019.72
2019-04-14T08:45:23.753Z,1019.73
2019-04-14T08:46:33.450Z,1019.73
2019-04-14T08:47:43.394Z,1019.71
2019-04-14T08:48:53.358Z,1019.7
2019-04-14T08:50:03.313Z,1019.74
2019-04-14T08:51:13.059Z,1019.72
2019-04-14T08:52:24.191Z,1019.69
2019-04-14T08:53:33.807Z,1019.72
2019-04-14T08:54:43.955Z,1019.71
2019-04-14T08:55:53.909Z,1019.69
2019-04-14T08:57:03.362Z,1019.69
2019-04-14T08:58:12.838Z,1019.68
2019-04-14T08:59:22.791Z,1019.7
2019-04-14T09:00:32.749Z,1019.72
2019-04-14T09:01:42.700Z,1019.78
2019-04-14T09:02:52.716Z,1019.75
2019-04-14T09:04:02.678Z,1019.78
2019-04-14T09:05:12.612Z,1019.71
2019-04-14T09:06:22.546Z,1019.69
2019-04-14T09:07:32.493Z,1019.74
2019-04-14T09:08:42.192Z,1019.73
2019-04-14T09:09:52.143Z,1019.75
2019-04-14T09:11:01.583Z,1019.75
2019-04-14T09:12:15.607Z,1019.69
2019-04-14T09:13:25.875Z,1019.69
2019-04-14T09:14:35.869Z,1019.63
2019-04-14T09:15:58.968Z,1019.66
2019-04-14T09:17:08.483Z,1019.66
2019-04-14T09:18:18.178Z,1019.67
2019-04-14T09:19:27.867Z,1019.67
2019-04-14T09:20:37.852Z,1019.68
2019-04-14T09:21:59.897Z,1019.7
2019-04-14T09:23:09.617Z,1019.7
2019-04-14T09:24:19.315Z,1019.71
2019-04-14T09:25:29.262Z,1019.71
2019-04-14T09:26:38.963Z,1019.74
2019-04-14T09:27:48.923Z,1019.73
2019-04-14T09:28:58.623Z,1019.8
2019-04-14T09:30:08.584Z,1019.76
2019-04-14T09:31:18.548Z,1019.74
2019-04-14T09:32:28.247Z,1019.74
2019-04-14T09:33:38.187Z,1019.81
2019-04-14T09:34:48.175Z,1019.8
2019-04-14T09:35:57.875Z,1019.79
2019-04-14T09:37:07.573Z,1019.82
2019-04-14T09:38:19.827Z,1019.83
2019-04-14T09:39:29.536Z,1019.84
2019-04-14T09:40:39.222Z,1019.87
2019-04-14T09:41:49.244Z,1019.87
2019-04-14T09:42:59.210Z,1019.92
2019-04-14T09:44:09.163Z,1019.96
2019-04-14T09:45:19.130Z,1019.96
2019-04-14T09:46:29.079Z,1019.99
2019-04-14T09:47:39.032Z,1020.02
2019-04-14T09:48:48.996Z,1020
2019-04-14T09:49:58.708Z,1019.98
2019-04-14T09:51:08.147Z,1020
2019-04-14T09:52:18.101Z,1020.03
2019-04-14T09:53:27.550Z,1020.03
2019-04-14T09:54:37.251Z,1020.02
2019-04-14T09:55:47.191Z,1020.01
2019-04-14T09:56:57.147Z,1020.02
2019-04-14T09:58:06.893Z,1019.99
2019-04-14T09:59:16.904Z,1019.95
2019-04-14T10:00:27.029Z,1019.96
2019-04-14T10:01:37.175Z,1019.97
2019-04-14T10:02:47.356Z,1019.9
2019-04-14T10:03:57.343Z,1019.9
2019-04-14T10:05:07.327Z,1019.94
2019-04-14T10:06:17.319Z,1019.94
2019-04-14T10:07:27.472Z,1019.9
2019-04-14T10:08:37.412Z,1019.89
2019-04-14T10:09:47.432Z,1019.93
2019-04-14T10:10:57.024Z,1019.96
2019-04-14T10:12:06.988Z,1019.95
2019-04-14T10:13:16.943Z,1019.98
2019-04-14T10:14:26.657Z,1019.97
2019-04-14T10:15:36.361Z,1019.96
2019-04-14T10:16:46.063Z,1019.99
2019-04-14T10:17:55.263Z,1019.94
2019-04-14T10:19:05.225Z,1020.02
2019-04-14T10:20:14.936Z,1020.04
2019-04-14T10:21:24.891Z,1020
2019-04-14T10:22:34.607Z,1020.03
2019-04-14T10:23:44.314Z,1020.05
2019-04-14T10:24:54.259Z,1020.05
2019-04-14T10:26:04.239Z,1020.05
2019-04-14T10:27:14.201Z,1020.11
2019-04-14T10:28:24.136Z,1020.05
2019-04-14T10:29:34.092Z,1020.1
2019-04-14T10:30:44.056Z,1020.1
2019-04-14T10:31:54.003Z,1020.15
2019-04-14T10:33:03.475Z,1020.15
2019-04-14T10:34:13.173Z,1020.13
2019-04-14T10:35:22.897Z,1020.13
2019-04-14T10:36:32.853Z,1020.15
2019-04-14T10:37:42.553Z,1020.16
2019-04-14T10:38:52.508Z,1020.14
2019-04-14T10:40:01.990Z,1020.14
2019-04-14T10:41:14.339Z,1020.14
2019-04-14T10:42:24.308Z,1020.16
2019-04-14T10:43:34.278Z,1020.18
2019-04-14T10:44:44.250Z,1020.15
2019-04-14T10:45:54.219Z,1020.16
2019-04-14T10:47:03.679Z,1020.2
2019-04-14T10:48:13.622Z,1020.19
2019-04-14T10:49:23.592Z,1020.19
2019-04-14T10:50:33.310Z,1020.2
2019-04-14T10:51:43.262Z,1020.2
2019-04-14T10:52:53.002Z,1020.2
2019-04-14T10:54:02.973Z,1020.16
2019-04-14T10:55:12.929Z,1020.17
2019-04-14T10:56:22.670Z,1020.13
2019-04-14T10:57:32.177Z,1020.16
2019-04-14T10:58:41.645Z,1020.11
2019-04-14T10:59:51.115Z,1020.18
2019-04-14T11:01:01.102Z,1020.17
2019-04-14T11:02:10.824Z,1020.23
2019-04-14T11:03:20.557Z,1020.16
2019-04-14T11:04:30.573Z,1020.17
2019-04-14T11:05:40.316Z,1020.18
2019-04-14T11:06:50.276Z,1020.19
2019-04-14T11:08:00.245Z,1020.18
2019-04-14T11:09:10.229Z,1020.16
2019-04-14T11:10:20.200Z,1020.19
2019-04-14T11:11:30.243Z,1020.19
2019-04-14T11:12:40.238Z,1020.22
2019-04-14T11:13:50.221Z,1020.17
2019-04-14T11:15:00.195Z,1020.17
2019-04-14T11:16:10.159Z,1020.13
2019-04-14T11:17:20.127Z,1020.2
2019-04-14T11:18:29.858Z,1020.19
2019-04-14T11:19:39.809Z,1020.14
2019-04-14T11:20:49.262Z,1020.09
2019-04-14T11:21:59.219Z,1020.13
2019-04-14T11:23:08.691Z,1020.12
2019-04-14T11:24:18.159Z,1020.14
2019-04-14T11:25:29.341Z,1020.14
2019-04-14T11:26:39.313Z,1020.07
2019-04-14T11:27:49.028Z,1020.1
2019-04-14T11:28:58.994Z,1020.12
2019-04-14T11:30:08.983Z,1020.11
2019-04-14T11:31:18.701Z,1020.08
2019-04-14T11:32:28.416Z,1020.12
2019-04-14T11:33:38.366Z,1020.08
2019-04-14T11:34:48.314Z,1020.06
2019-04-14T11:35:58.258Z,1020.11
2019-04-14T11:37:07.986Z,1020.13
2019-04-14T11:38:17.954Z,1020.08
2019-04-14T11:39:27.932Z,1020.12
2019-04-14T11:40:37.884Z,1020.09
2019-04-14T11:41:47.619Z,1020.09
2019-04-14T11:42:57.629Z,1020.08
2019-04-14T11:44:07.421Z,1020.1
2019-04-14T11:45:17.218Z,1020.09
2019-04-14T11:46:27.015Z,1020.03
2019-04-14T11:47:36.979Z,1020.05
2019-04-14T11:48:46.691Z,1019.99
2019-04-14T11:49:56.637Z,1020.01
2019-04-14T11:51:06.665Z,1020.02
2019-04-14T11:52:16.386Z,1020.01
2019-04-14T11:53:26.349Z,1020.02
2019-04-14T11:54:36.062Z,1020
2019-04-14T11:55:46.025Z,1020
2019-04-14T11:56:55.999Z,1020.04
2019-04-14T11:58:05.976Z,1020.04
2019-04-14T11:59:15.924Z,1020.01
2019-04-14T12:00:25.658Z,1020.02
2019-04-14T12:01:36.055Z,1020
2019-04-14T12:02:46.064Z,1020.03
2019-04-14T12:03:55.774Z,1020.03
2019-04-14T12:05:05.758Z,1020.03
2019-04-14T12:06:15.465Z,1019.99
2019-04-14T12:07:25.168Z,1020.02
2019-04-14T12:08:35.108Z,1020.03
2019-04-14T12:09:46.204Z,1019.98
2019-04-14T12:10:56.168Z,1020.01
2019-04-14T12:12:05.854Z,1019.98
2019-04-14T12:13:15.809Z,1020.01
2019-04-14T12:14:25.803Z,1020.01
2019-04-14T12:15:35.523Z,1020.02
2019-04-14T12:16:45.479Z,1020.05
2019-04-14T12:17:55.439Z,1020.08
2019-04-14T12:19:05.140Z,1020.07
2019-04-14T12:20:14.844Z,1020.08
2019-04-14T12:21:24.810Z,1020.08
2019-04-14T12:22:34.516Z,1020.06
2019-04-14T12:23:44.457Z,1020.05
2019-04-14T12:24:54.759Z,1020.09
2019-04-14T12:26:05.409Z,1020.09
2019-04-14T12:27:15.675Z,1020.05
2019-04-14T12:28:26.251Z,1020.05
2019-04-14T12:29:37.035Z,1020.03
2019-04-14T12:30:46.749Z,1020.05
2019-04-14T12:31:57.430Z,1020.03
2019-04-14T12:33:07.206Z,1020.02
2019-04-14T12:34:18.350Z,1020.04
2019-04-14T12:35:28.263Z,1020.01
2019-04-14T12:36:37.992Z,1019.96
2019-04-14T12:37:47.937Z,1019.95
2019-04-14T12:38:57.645Z,1019.91
2019-04-14T12:40:07.643Z,1019.96
2019-04-14T12:41:17.766Z,1019.97
2019-04-14T12:42:27.249Z,1019.99
2019-04-14T12:43:37.008Z,1019.95
2019-04-14T12:44:46.458Z,1019.97
2019-04-14T12:45:56.158Z,1019.95
2019-04-14T12:47:09.083Z,1020
2019-04-14T12:48:18.787Z,1020.02
2019-04-14T12:49:28.776Z,1020.01
2019-04-14T12:50:38.239Z,1020.03
2019-04-14T12:51:47.945Z,1019.98
2019-04-14T12:52:57.929Z,1020.03
2019-04-14T12:54:07.883Z,1019.96
2019-04-14T12:55:19.280Z,1019.95
2019-04-14T12:56:28.970Z,1019.96
2019-04-14T12:57:38.672Z,1019.95
2019-04-14T12:58:48.649Z,1019.95
2019-04-14T12:59:58.370Z,1019.92
2019-04-14T13:01:08.059Z,1019.96
2019-04-14T13:02:17.778Z,1019.92
2019-04-14T13:03:27.511Z,1019.92
2019-04-14T13:04:37.549Z,1019.86
2019-04-14T13:05:47.572Z,1019.94
2019-04-14T13:06:57.536Z,1019.88
2019-04-14T13:08:07.233Z,1019.87
2019-04-14T13:09:16.945Z,1019.88
2019-04-14T13:10:26.924Z,1019.82
2019-04-14T13:11:36.646Z,1019.82
2019-04-14T13:12:46.594Z,1019.82
2019-04-14T13:13:56.305Z,1019.84
2019-04-14T13:15:06.870Z,1019.86
2019-04-14T13:16:16.616Z,1019.83
2019-04-14T13:17:26.104Z,1019.83
2019-04-14T13:18:36.074Z,1019.8
2019-04-14T13:19:46.025Z,1019.78
2019-04-14T13:20:56.023Z,1019.74
2019-04-14T13:22:05.951Z,1019.77
2019-04-14T13:23:15.913Z,1019.73
2019-04-14T13:24:25.913Z,1019.74
2019-04-14T13:25:35.634Z,1019.71
2019-04-14T13:26:45.607Z,1019.66
2019-04-14T13:27:55.560Z,1019.66
2019-04-14T13:29:05.313Z,1019.67
2019-04-14T13:30:15.275Z,1019.64
2019-04-14T13:31:25.254Z,1019.67
2019-04-14T13:32:36.336Z,1019.61
2019-04-14T13:33:45.643Z,1019.62
2019-04-14T13:34:57.805Z,1019.6
2019-04-14T13:36:07.589Z,1019.63
2019-04-14T13:37:17.311Z,1019.64
2019-04-14T13:38:27.026Z,1019.63
2019-04-14T13:39:36.978Z,1019.61
2019-04-14T13:40:46.939Z,1019.66
2019-04-14T13:41:56.901Z,1019.65
2019-04-14T13:43:06.873Z,1019.67
2019-04-14T13:44:16.853Z,1019.69
2019-04-14T13:45:26.818Z,1019.7
2019-04-14T13:46:36.798Z,1019.66
2019-04-14T13:47:46.978Z,1019.71
2019-04-14T13:48:56.933Z,1019.73
2019-04-14T13:50:06.626Z,1019.69
2019-04-14T13:51:16.631Z,1019.69
2019-04-14T13:52:26.353Z,1019.7
2019-04-14T13:53:50.928Z,1019.66
2019-04-14T13:55:00.895Z,1019.68
2019-04-14T13:56:10.408Z,1019.68
2019-04-14T13:57:20.118Z,1019.71
2019-04-14T13:58:30.081Z,1019.7
2019-04-14T13:59:44.396Z,1019.69
2019-04-14T14:00:54.095Z,1019.66
2019-04-14T14:02:03.802Z,1019.74
2019-04-14T14:03:13.258Z,1019.69
2019-04-14T14:04:23.220Z,1019.68
2019-04-14T14:05:33.285Z,1019.73
2019-04-14T14:06:46.425Z,1019.76
2019-04-14T14:07:56.201Z,1019.73
2019-04-14T14:09:05.723Z,1019.7
2019-04-14T14:10:15.427Z,1019.7
2019-04-14T14:11:25.144Z,1019.73
2019-04-14T14:12:37.608Z,1019.71
2019-04-14T14:13:47.321Z,1019.74
2019-04-14T14:14:57.054Z,1019.77
2019-04-14T14:16:07.263Z,1019.7
2019-04-14T14:17:18.833Z,1019.71
2019-04-14T14:18:28.743Z,1019.66
2019-04-14T14:19:38.772Z,1019.67
2019-04-14T14:20:48.732Z,1019.7
2019-04-14T14:21:58.529Z,1019.71
2019-04-14T14:23:08.452Z,1019.68
2019-04-14T14:24:18.154Z,1019.66
2019-04-14T14:25:27.629Z,1019.7
2019-04-14T14:26:37.595Z,1019.7
2019-04-14T14:27:46.798Z,1019.67
2019-04-14T14:28:56.796Z,1019.66
2019-04-14T14:30:06.766Z,1019.66
2019-04-14T14:31:16.496Z,1019.65
2019-04-14T14:32:26.476Z,1019.68
2019-04-14T14:33:36.485Z,1019.65
2019-04-14T14:34:48.328Z,1019.69
2019-04-14T14:35:58.315Z,1019.66
2019-04-14T14:37:08.274Z,1019.66
2019-04-14T14:38:18.245Z,1019.69
2019-04-14T14:39:28.194Z,1019.7
2019-04-14T14:40:37.919Z,1019.71
2019-04-14T14:41:49.848Z,1019.7
2019-04-14T14:42:59.892Z,1019.72
2019-04-14T14:44:09.627Z,1019.67
2019-04-14T14:45:19.336Z,1019.75
2019-04-14T14:46:29.049Z,1019.67
2019-04-14T14:47:42.393Z,1019.72
2019-04-14T14:48:52.366Z,1019.78
2019-04-14T14:50:02.321Z,1019.69
2019-04-14T14:51:12.292Z,1019.68
2019-04-14T14:52:22.259Z,1019.75
2019-04-14T14:53:31.734Z,1019.7
2019-04-14T14:54:41.689Z,1019.71
2019-04-14T14:55:51.143Z,1019.65
2019-04-14T14:57:00.603Z,1019.75
2019-04-14T14:58:10.654Z,1019.71
2019-04-14T14:59:20.621Z,1019.69
2019-04-14T15:00:30.575Z,1019.71
2019-04-14T15:01:40.552Z,1019.74
2019-04-14T15:02:49.773Z,1019.76
2019-04-14T15:03:59.510Z,1019.72
2019-04-14T15:05:09.874Z,1019.69
2019-04-14T15:06:19.588Z,1019.7
2019-04-14T15:07:29.556Z,1019.64
2019-04-14T15:08:39.290Z,1019.62
2019-04-14T15:09:49.253Z,1019.68
2019-04-14T15:10:58.969Z,1019.65
2019-04-14T15:12:11.914Z,1019.64
2019-04-14T15:13:21.683Z,1019.67
2019-04-14T15:14:31.692Z,1019.64
2019-04-14T15:15:41.403Z,1019.67
2019-04-14T15:16:51.113Z,1019.7
2019-04-14T15:18:01.063Z,1019.71
2019-04-14T15:19:11.049Z,1019.72
2019-04-14T15:20:21.215Z,1019.72
2019-04-14T15:21:31.190Z,1019.68
2019-04-14T15:22:41.157Z,1019.73
2019-04-14T15:23:52.853Z,1019.71
2019-04-14T15:25:02.823Z,1019.73
2019-04-14T15:26:12.544Z,1019.76
2019-04-14T15:27:22.271Z,1019.66